Newport, North Carolina
Current Conditions -  °F | °C
As of 12:54 PM on Thursday 30 Oct 2014 (Local Time) from KNKT Reporting Station
Broken Clouds Broken Clouds  
Wind Chill: 65°   Ceiling: 2000
Heat Index: 65°   Visibility: 10mi
Dew Point: 53°   Wind: 9mph
Humidity: 65%   Direction: 50°NE
Pressure: 30"   Gusts: NA
Location:  34.79°N, 76.86°W
Report Text: KNKT 301654Z 05008KT 10SM BKN020 18/12 A3000 RMK AO2 SLP157 T01830117 $
Loading
Personal Weather Stations






























Interactive Weather Map
Tropical Storm Tracking
New forecast layout! Learn more

10-Day Weather Forecast

Advertisements
Track Severe Weather on mobile